Погода Власовна 2 недели

Ростовская область, Россия

20 мая-02 июня
  • 20мая
    Сегодня
    +9°
    +22°
    Пасмурно, сплошная облачность
    ВремяПогодаТемператураВлажностьДавлениеВетер, м/сВероятность осадков
    00:00Ясно и безоблачно+10°C79 %759 мм0.4 м/с2 %
    03:00Ясно и безоблачно+7°C91 %759 мм0.4 м/с2 %
    06:00Ясно и безоблачно+10°C79 %760 мм0.4 м/с2 %
    09:00Практически безоблачно+20°C44 %760 мм2.2 м/с2 %
    12:00Небольшая облачность+22°C34 %760 мм3.4 м/с3 %
    15:00Пасмурно, сплошная облачность+22°C30 %760 мм2.3 м/с4 %
    18:00Небольшая облачность+21°C30 %760 мм1.5 м/с2 %
    21:00Облачно с прояснениями+16°C47 %761 мм0.9 м/с2 %
  • 21мая
    Вторник
    +10°
    +26°
    Облачно с прояснениями
    ВремяПогодаТемператураВлажностьДавлениеВетер, м/сВероятность осадков
    00:00Ясно и безоблачно+12°C65 %761 мм0.8 м/с2 %
    03:00Ясно и безоблачно+9°C72 %761 мм0.7 м/с2 %
    06:00Ясно и безоблачно+13°C63 %762 мм0.7 м/с2 %
    09:00Ясно и безоблачно+23°C30 %762 мм1.7 м/с2 %
    12:00Небольшая облачность+25°C23 %762 мм2.6 м/с2 %
    15:00Облачно с прояснениями+25°C21 %761 мм1.9 м/с2 %
    18:00Облачно с прояснениями+24°C23 %761 мм0.6 м/с2 %
    21:00Ясно и безоблачно+18°C43 %761 мм0.7 м/с2 %
  • 22мая
    Среда
    +10°
    +27°
    Небольшая облачность
    ВремяПогодаТемператураВлажностьДавлениеВетер, м/сВероятность осадков
    00:00Практически безоблачно+13°C52 %761 мм0.4 м/с2 %
    03:00Ясно и безоблачно+11°C56 %761 мм0.9 м/с2 %
    06:00Ясно и безоблачно+14°C52 %761 мм0.3 м/с2 %
    09:00Ясно и безоблачно+24°C28 %762 мм2.0 м/с2 %
    12:00Небольшая облачность+27°C20 %761 мм3.8 м/с2 %
    15:00Небольшая облачность+27°C20 %760 мм3.9 м/с2 %
    18:00Ясно и безоблачно+25°C21 %759 мм2.2 м/с2 %
    21:00Ясно и безоблачно+17°C36 %760 мм1.5 м/с2 %
  • 23мая
    Четверг
    +11°
    +28°
    Практически безоблачно
    ВремяПогодаТемператураВлажностьДавлениеВетер, м/сВероятность осадков
    00:00Ясно и безоблачно+14°C41 %759 мм1.2 м/с2 %
    03:00Ясно и безоблачно+11°C49 %760 мм1.1 м/с2 %
    06:00Ясно и безоблачно+13°C47 %760 мм0.7 м/с2 %
    09:00Ясно и безоблачно+25°C29 %760 мм2.6 м/с2 %
    12:00Ясно и безоблачно+27°C22 %760 мм4.0 м/с4 %
    15:00Практически безоблачно+27°C23 %759 мм4.3 м/с23 %
    18:00Практически безоблачно+24°C28 %759 мм4.1 м/с16 %
    21:00Ясно и безоблачно+19°C49 %761 мм3.6 м/с3 %
  • 24мая
    Пятница
    +8°
    +21°
    Ясно и безоблачно
    ВремяПогодаТемператураВлажностьДавлениеВетер, м/сВероятность осадков
    00:00Ясно и безоблачно+15°C64 %761 мм3.7 м/с2 %
    03:00Ясно и безоблачно+13°C62 %763 мм4.5 м/с2 %
    06:00Ясно и безоблачно+12°C42 %764 мм4.1 м/с2 %
    09:00Ясно и безоблачно+17°C34 %765 мм6.0 м/с2 %
    12:00Ясно и безоблачно+21°C30 %765 мм6.6 м/с3 %
    15:00Ясно и безоблачно+21°C23 %765 мм6.7 м/с7 %
    18:00Ясно и безоблачно+20°C19 %765 мм6.0 м/с2 %
    21:00Ясно и безоблачно+15°C25 %766 мм4.8 м/с2 %
Мы используем cookies
Соглашаюсь